createdAt,value
2022-11-18T00:02:38.527Z,0.60
2022-11-18T00:17:42.138Z,0.60
2022-11-18T00:32:45.564Z,0.59
2022-11-18T00:47:49.175Z,0.52
2022-11-18T01:02:52.615Z,0.44
2022-11-18T01:17:56.075Z,0.47
2022-11-18T01:32:59.305Z,0.47
2022-11-18T01:48:07.714Z,0.45
2022-11-18T02:03:11.501Z,0.66
2022-11-18T02:18:24.047Z,0.70
2022-11-18T02:33:39.345Z,0.86
2022-11-18T02:48:50.340Z,1.10
2022-11-18T03:03:54.075Z,1.19
2022-11-18T03:19:10.154Z,1.23
2022-11-18T03:34:26.119Z,1.24
2022-11-18T03:49:35.155Z,1.16
2022-11-18T04:04:39.152Z,0.98
2022-11-18T04:19:42.736Z,1.00
2022-11-18T04:34:45.899Z,1.17
2022-11-18T04:49:49.136Z,1.23
2022-11-18T05:04:52.538Z,1.41
2022-11-18T05:19:55.910Z,1.42
2022-11-18T05:34:59.098Z,1.26
2022-11-18T05:50:02.541Z,1.07
2022-11-18T06:05:06.613Z,1.18
2022-11-18T06:20:10.771Z,1.22
2022-11-18T06:35:14.292Z,1.25
2022-11-18T06:50:18.332Z,1.36
2022-11-18T07:05:21.959Z,1.47
2022-11-18T07:20:25.154Z,1.41
2022-11-18T07:35:28.860Z,1.42
2022-11-18T07:50:32.655Z,1.99
2022-11-18T08:05:36.228Z,3.52
2022-11-18T08:20:39.451Z,4.26
2022-11-18T08:35:42.650Z,4.44
2022-11-18T08:50:46.073Z,4.94
2022-11-18T09:05:49.795Z,3.94
2022-11-18T09:20:57.994Z,3.42
2022-11-18T09:36:02.325Z,3.52
2022-11-18T09:51:06.486Z,3.55
2022-11-18T10:06:10.737Z,3.58
2022-11-18T10:21:37.732Z,3.29
2022-11-18T10:36:41.582Z,3.65
2022-11-18T10:51:47.474Z,4.70
2022-11-18T11:06:51.240Z,4.71
2022-11-18T11:21:55.246Z,3.56
2022-11-18T11:37:15.227Z,3.74
2022-11-18T11:52:32.352Z,4.94
2022-11-18T12:07:52.110Z,4.80
2022-11-18T12:23:16.222Z,5.42
2022-11-18T12:38:32.815Z,4.74
2022-11-18T12:53:45.251Z,3.88
2022-11-18T13:08:56.360Z,3.68
2022-11-18T13:24:01.231Z,3.12
2022-11-18T13:39:07.140Z,3.06
2022-11-18T13:54:15.847Z,3.02
2022-11-18T14:09:27.674Z,2.81
2022-11-18T14:24:31.325Z,2.68
2022-11-18T14:39:37.801Z,2.56
2022-11-18T14:54:41.444Z,2.23
2022-11-18T15:09:45.494Z,1.94
2022-11-18T15:24:48.943Z,1.65
2022-11-18T15:39:52.141Z,1.68
2022-11-18T15:54:56.050Z,1.80
2022-11-18T16:10:18.015Z,1.52
2022-11-18T16:25:21.416Z,1.25
2022-11-18T16:40:24.640Z,0.93
2022-11-18T16:55:28.224Z,0.72
2022-11-18T17:10:31.969Z,0.50
2022-11-18T17:25:35.789Z,0.29
2022-11-18T17:40:39.340Z,0.22
2022-11-18T17:55:43.645Z,0.20
2022-11-18T18:10:46.841Z,0.14
2022-11-18T18:25:50.120Z,-0.03
2022-11-18T18:40:54.722Z,-0.12
2022-11-18T18:55:59.244Z,-0.40
2022-11-18T19:11:06.356Z,-0.60
2022-11-18T19:26:10.229Z,-0.78
2022-11-18T19:41:14.114Z,-0.92
2022-11-18T19:56:20.693Z,-0.98
2022-11-18T20:11:24.921Z,-1.07
2022-11-18T20:26:37.329Z,-1.21
2022-11-18T20:41:40.902Z,-1.38
2022-11-18T20:56:44.675Z,-1.55
2022-11-18T21:11:48.362Z,-1.47
2022-11-18T21:26:55.085Z,-1.26
2022-11-18T21:41:58.703Z,-1.19
2022-11-18T21:57:02.348Z,-1.23
2022-11-18T22:12:06.938Z,-1.24
2022-11-18T22:27:11.676Z,-1.24
2022-11-18T22:42:34.184Z,-1.42
2022-11-18T22:57:37.811Z,-1.41
2022-11-18T23:13:00.166Z,-1.10
2022-11-18T23:28:03.343Z,-1.08
2022-11-18T23:43:06.880Z,-1.03
2022-11-18T23:58:10.336Z,-0.80
